South Daytona, FL

8:47 AM EDT on August 30, 2014 (GMT -0400)
Daytona Beach International | Change Station
CLOSE
Current Station
Airport
Location: Daytona Beach,
Elevation: 33 ft
Nearby Weather Stations

Elev 33 ft 29.18 °N, 81.06 °W | Updated 54 minutes ago

Scattered Clouds
Scattered Clouds
74 °F
Feels Like 74 °F
N
0
Wind Variable Wind from North

Today
High -- | Low -- °F
--% Chance of Precip.
Yesterday
High -- | Low -- °F
Precip. -- in
7:00 AM 7:48 PM
Waxing Crescent, 21% visible
Pressure 30.15 in
Visibility 10.0 miles
Clouds Few 4000 ft
Few 7000 ft
Scattered Clouds 14000 ft
Scattered Clouds 25000 ft
Dew Point 73 °F
Humidity 97%
Rainfall 0.00 in
Snow Depth Not available.
UV 1 out of 12
Pollen 7.60 out of 12
Air Quality Not available.
Flu Activity Not available.
METAR KDAB 301153Z 00000KT 10SM FEW040 FEW070 SCT140 SCT250 23/23 A3015 RMK AO2 SLP208 CB DSNT SE T02330228 10233 20222 51015 $

More Conditions Fewer Conditions

Pressure 30.15 in
Visibility 10.0 miles
Clouds Few 4000 ft
Few 7000 ft
Scattered Clouds 14000 ft
Scattered Clouds 25000 ft
Dew Point 73 °F
Humidity 97%
Rainfall 0.00 in
Snow Depth Not available.
UV 1 out of 12
Pollen 7.60 out of 12
Air Quality Not available.
Flu Activity Not available.
METAR KDAB 301153Z 00000KT 10SM FEW040 FEW070 SCT140 SCT250 23/23 A3015 RMK AO2 SLP208 CB DSNT SE T02330228 10233 20222 51015 $

More Conditions Fewer Conditions

10-Day Weather Forecast

Almanac

Astronomy

Aug. 30, 2014 Rise Set
Actual Time 7:00 AM EDT 7:48 PM EDT
Civil Twilight 6:36 AM EDT 8:12 PM EDT
Nautical Twilight 6:08 AM EDT 8:40 PM EDT
Astronomical Twilight 5:38 AM EDT 9:10 PM EDT
Moon 11:22 AM EDT 10:47 PM EDT
Length of Visible Light 13h 35m
Length of Day
12h 47m
Tomorrow will be 1m 40s shorter.
Waxing Crescent, 21% of the Moon is Illuminated
Today
Waxing Crescent
Sep 2
First Quarter
Sep 8
Full
Sep 15
Last Quarter
Sep 24
New

Today's Extremes

State Highs State Lows

Community

WunderPhotos

Upload Photos

1,748,500 photos uploaded!

WunderBlogs® & News

By Dr. Jeff Masters
Director of Meteorology, Weather Underground
By Kari Strenfel
Meteorologist, Weather Underground
By Christopher C. Burt
Weather Historian, Weather Underground
August 30, 2014
August 30, 2014
August 30, 2014

Nearby

Snow Depth

Station Depth Elevation
No new snow has been reported.

Earthquake Activity

City Distance Mag. Time & Date
No recent earthquake activity has been reported nearby.
Minimum magnitude displayed is 2.5.

Coastal Water Temperatures

Place Temperature
Trident Pier, FL 84.9 °F
Mayport (Bar Pilots Dock), FL 84.0 °F
Fernandina Beach, FL 84.0 °F
McKay Bay Entrance, FL 89.1 °F

Nearby Weather Stations